createdAt,value
2019-03-18T00:01:13.209Z,7.28
2019-03-18T00:06:22.073Z,6.95
2019-03-18T00:11:29.469Z,7.79
2019-03-18T00:16:38.318Z,6.55
2019-03-18T00:21:47.184Z,6.19
2019-03-18T00:26:56.085Z,7.65
2019-03-18T00:32:04.936Z,7.03
2019-03-18T00:37:13.801Z,6.91
2019-03-18T00:42:22.666Z,6.53
2019-03-18T00:47:31.745Z,5.48
2019-03-18T00:52:40.590Z,5.35
2019-03-18T00:57:49.490Z,6.44
2019-03-18T01:02:58.473Z,5.15
2019-03-18T01:08:07.357Z,4.50
2019-03-18T01:13:16.231Z,5.67
2019-03-18T01:18:25.186Z,4.93
2019-03-18T01:23:34.082Z,4.07
2019-03-18T01:28:42.970Z,4.03
2019-03-18T01:33:51.842Z,4.70
2019-03-18T01:39:00.670Z,5.41
2019-03-18T01:44:09.562Z,4.65
2019-03-18T01:49:18.420Z,4.81
2019-03-18T01:59:34.298Z,5.34
2019-03-18T02:04:43.192Z,6.14
2019-03-18T02:09:52.073Z,4.91
2019-03-18T02:14:59.448Z,5.97
2019-03-18T02:20:08.283Z,5.59
2019-03-18T02:25:17.120Z,5.92
2019-03-18T02:30:25.987Z,7.77
2019-03-18T02:35:34.883Z,8.05
2019-03-18T02:40:43.749Z,7.55
2019-03-18T02:46:09.005Z,8.11
2019-03-18T02:51:01.059Z,7.96
2019-03-18T02:56:09.957Z,8.60
2019-03-18T03:01:18.775Z,9.40
2019-03-18T03:06:27.959Z,10.05
2019-03-18T03:11:36.810Z,9.63
2019-03-18T03:16:45.717Z,10.17
2019-03-18T03:21:54.586Z,11.31
2019-03-18T03:27:03.436Z,12.47
2019-03-18T03:32:12.339Z,8.71
2019-03-18T03:37:21.188Z,10.85
2019-03-18T03:42:30.127Z,10.20
2019-03-18T03:47:38.978Z,8.62
2019-03-18T03:52:47.872Z,9.82
2019-03-18T03:57:56.739Z,11.14
2019-03-18T04:03:05.655Z,10.03
2019-03-18T04:08:14.516Z,12.02
2019-03-18T04:13:23.358Z,12.00
2019-03-18T04:18:32.627Z,11.74
2019-03-18T04:23:41.486Z,10.52
2019-03-18T04:28:50.332Z,14.33
2019-03-18T04:33:59.163Z,12.07
2019-03-18T04:39:08.010Z,13.19
2019-03-18T04:44:16.864Z,9.60
2019-03-18T04:49:25.695Z,12.47
2019-03-18T04:54:34.523Z,10.25
2019-03-18T04:59:43.409Z,10.55
2019-03-18T05:04:52.347Z,9.14
2019-03-18T05:10:01.603Z,9.84
2019-03-18T05:15:10.443Z,9.89
2019-03-18T05:20:19.290Z,8.92
2019-03-18T05:25:28.526Z,10.42
2019-03-18T05:30:37.377Z,11.13
2019-03-18T05:35:46.310Z,13.61
2019-03-18T05:40:55.184Z,11.71
2019-03-18T05:46:04.059Z,10.93
2019-03-18T05:51:13.914Z,11.34
2019-03-18T05:56:22.776Z,10.49
2019-03-18T06:01:33.855Z,10.67
2019-03-18T06:06:32.763Z,12.51
2019-03-18T06:11:41.563Z,13.84
2019-03-18T06:16:50.391Z,10.28
2019-03-18T06:21:59.281Z,10.50
2019-03-18T06:27:08.168Z,12.93
2019-03-18T06:32:17.075Z,10.51
2019-03-18T06:37:25.964Z,9.72
2019-03-18T06:42:34.868Z,13.43
2019-03-18T06:47:43.808Z,12.43
2019-03-18T06:52:52.737Z,11.62
2019-03-18T06:58:01.576Z,13.39
2019-03-18T07:03:10.448Z,11.86
2019-03-18T07:08:19.337Z,12.16
2019-03-18T07:13:28.210Z,13.49
2019-03-18T07:18:37.066Z,12.49
2019-03-18T07:23:44.497Z,13.52
2019-03-18T07:28:53.395Z,14.19
2019-03-18T07:34:02.328Z,11.37
2019-03-18T07:39:13.552Z,9.96
2019-03-18T07:44:12.948Z,9.58
2019-03-18T07:49:20.972Z,10.15
2019-03-18T07:54:33.086Z,8.44
2019-03-18T07:59:38.137Z,9.78
2019-03-18T08:04:47.005Z,10.18
2019-03-18T08:09:55.862Z,8.94
2019-03-18T08:15:04.777Z,11.45
2019-03-18T08:20:13.662Z,11.44
2019-03-18T08:25:22.547Z,7.40
2019-03-18T08:30:31.524Z,10.81
2019-03-18T08:35:40.450Z,9.50
2019-03-18T08:45:57.063Z,8.89
2019-03-18T08:51:05.950Z,8.43
2019-03-18T08:56:14.793Z,9.00
2019-03-18T09:01:23.735Z,9.18
2019-03-18T09:06:32.787Z,9.30
2019-03-18T09:11:41.777Z,11.02
2019-03-18T09:16:50.634Z,9.31
2019-03-18T09:21:59.523Z,6.81
2019-03-18T09:27:08.404Z,9.24
2019-03-18T09:32:17.289Z,5.46
2019-03-18T09:37:26.139Z,4.66
2019-03-18T09:42:35.024Z,5.32
2019-03-18T09:47:43.881Z,5.72
2019-03-18T09:52:53.747Z,4.62
2019-03-18T09:58:02.847Z,3.09
2019-03-18T10:03:11.724Z,4.81
2019-03-18T10:08:20.659Z,3.64
2019-03-18T10:13:29.579Z,2.74
2019-03-18T10:18:38.458Z,3.64
2019-03-18T10:23:47.306Z,3.98
2019-03-18T10:28:56.212Z,3.14
2019-03-18T10:34:05.139Z,2.10
2019-03-18T10:39:13.962Z,4.11
2019-03-18T10:44:22.905Z,2.72
2019-03-18T10:49:31.846Z,2.83
2019-03-18T10:54:40.777Z,5.61
2019-03-18T10:59:49.642Z,3.43
2019-03-18T11:04:58.583Z,2.90
2019-03-18T11:10:07.451Z,2.99
2019-03-18T11:15:16.330Z,3.61
2019-03-18T11:20:25.264Z,4.22
2019-03-18T11:25:34.094Z,3.43
2019-03-18T11:30:42.940Z,2.77
2019-03-18T11:35:51.791Z,3.97
2019-03-18T11:41:00.847Z,3.66
2019-03-18T11:46:09.718Z,4.07
2019-03-18T11:51:18.604Z,3.63
2019-03-18T11:56:27.467Z,1.64
2019-03-18T12:01:37.670Z,2.61
2019-03-18T12:06:36.494Z,3.21
2019-03-18T12:11:45.372Z,4.22
2019-03-18T12:16:54.270Z,3.23
2019-03-18T12:22:03.174Z,4.63
2019-03-18T12:27:12.062Z,3.26
2019-03-18T12:32:20.939Z,3.83
2019-03-18T12:37:29.850Z,5.88
2019-03-18T12:42:38.816Z,3.62
2019-03-18T12:47:48.135Z,3.83
2019-03-18T12:52:57.027Z,3.69
2019-03-18T12:58:05.899Z,7.14
2019-03-18T13:03:14.738Z,4.79
2019-03-18T13:08:23.610Z,6.22
2019-03-18T13:13:32.475Z,3.43
2019-03-18T13:18:41.347Z,6.85
2019-03-18T13:23:50.183Z,5.46
2019-03-18T13:28:59.040Z,4.37
2019-03-18T13:34:07.958Z,3.63
2019-03-18T13:39:16.879Z,3.90
2019-03-18T13:44:25.786Z,4.46
2019-03-18T13:49:36.437Z,3.60
2019-03-18T13:54:35.066Z,5.42
2019-03-18T13:59:43.915Z,5.41
2019-03-18T14:04:52.852Z,3.61
2019-03-18T14:10:01.734Z,4.61
2019-03-18T14:15:10.591Z,5.50
2019-03-18T14:20:19.464Z,6.75
2019-03-18T14:25:28.341Z,4.66
2019-03-18T14:30:37.193Z,6.55
2019-03-18T14:35:46.055Z,6.10
2019-03-18T14:40:54.886Z,5.76
2019-03-18T14:46:03.732Z,5.47
2019-03-18T14:51:12.577Z,5.21
2019-03-18T14:56:21.458Z,7.19
2019-03-18T15:01:30.517Z,5.62
2019-03-18T15:06:39.303Z,4.17
2019-03-18T15:11:48.152Z,4.28
2019-03-18T15:16:56.968Z,5.97
2019-03-18T15:22:05.800Z,4.03
2019-03-18T15:27:14.690Z,4.67
2019-03-18T15:32:23.591Z,4.08
2019-03-18T15:37:32.896Z,4.35
2019-03-18T15:42:41.783Z,5.68
2019-03-18T15:47:50.671Z,3.10
2019-03-18T15:52:59.480Z,3.68
2019-03-18T15:58:08.323Z,3.97
2019-03-18T16:03:17.298Z,4.93
2019-03-18T16:08:26.163Z,4.34
2019-03-18T16:13:35.115Z,6.00
2019-03-18T16:18:44.007Z,4.15
2019-03-18T16:23:52.914Z,2.97
2019-03-18T16:29:01.989Z,3.40
2019-03-18T16:34:10.904Z,5.17
2019-03-18T16:39:19.803Z,3.96
2019-03-18T16:44:28.757Z,4.97
2019-03-18T16:49:37.675Z,5.57
2019-03-18T16:54:47.063Z,3.94
2019-03-18T16:59:55.962Z,3.78
2019-03-18T17:05:04.899Z,4.59
2019-03-18T17:10:13.749Z,4.35
2019-03-18T17:15:22.743Z,6.11
2019-03-18T17:20:31.631Z,4.04
2019-03-18T17:25:40.471Z,6.29
2019-03-18T17:30:53.308Z,5.74
2019-03-18T17:35:53.839Z,6.43
2019-03-18T17:40:53.512Z,6.03
2019-03-18T17:46:02.559Z,6.39
2019-03-18T17:51:17.361Z,6.33
2019-03-18T17:56:16.210Z,7.20
2019-03-18T18:01:25.206Z,12.32
2019-03-18T18:06:34.310Z,15.98
2019-03-18T18:11:43.401Z,22.24
2019-03-18T18:16:52.387Z,14.72
2019-03-18T18:21:59.836Z,13.92
2019-03-18T18:27:08.910Z,17.62
2019-03-18T18:32:17.875Z,9.80
2019-03-18T18:37:26.847Z,11.40
2019-03-18T18:42:40.214Z,8.81
2019-03-18T18:47:39.178Z,7.74
2019-03-18T18:52:48.214Z,8.04
2019-03-18T18:57:57.216Z,7.07
2019-03-18T19:03:06.230Z,7.40
2019-03-18T19:08:15.266Z,8.30
2019-03-18T19:13:24.198Z,6.83
2019-03-18T19:18:37.648Z,8.33
2019-03-18T19:23:41.687Z,10.07
2019-03-18T19:28:50.655Z,11.25
2019-03-18T19:33:59.530Z,8.23
2019-03-18T19:39:08.531Z,7.43
2019-03-18T19:44:17.412Z,8.43
2019-03-18T19:49:26.343Z,8.82
2019-03-18T19:54:35.211Z,8.11
2019-03-18T19:59:44.153Z,10.13
2019-03-18T20:04:52.959Z,8.51
2019-03-18T20:10:02.094Z,9.99
2019-03-18T20:15:10.986Z,10.39
2019-03-18T20:20:19.930Z,8.97
2019-03-18T20:25:28.771Z,8.67
2019-03-18T20:30:37.923Z,11.47
2019-03-18T20:35:48.799Z,8.49
2019-03-18T20:40:47.898Z,8.96
2019-03-18T20:45:56.858Z,10.77
2019-03-18T20:51:06.072Z,9.21
2019-03-18T20:56:15.093Z,10.16
2019-03-18T21:01:25.094Z,10.28
2019-03-18T21:06:23.900Z,7.83
2019-03-18T21:11:33.728Z,14.16
2019-03-18T21:16:42.587Z,12.36
2019-03-18T21:21:51.532Z,12.86
2019-03-18T21:27:00.465Z,10.15
2019-03-18T21:32:09.423Z,10.56
2019-03-18T21:37:18.350Z,9.38
2019-03-18T21:42:26.694Z,10.35
2019-03-18T21:47:35.850Z,20.38
2019-03-18T21:52:44.999Z,22.40
2019-03-18T21:57:53.921Z,17.50
2019-03-18T22:03:03.091Z,34.18
2019-03-18T22:08:11.974Z,32.01
2019-03-18T22:13:21.433Z,21.10
2019-03-18T22:18:29.909Z,15.00
2019-03-18T22:23:39.014Z,12.15
2019-03-18T22:28:47.857Z,13.78
2019-03-18T22:33:56.986Z,10.56
2019-03-18T22:39:05.818Z,12.71
2019-03-18T22:44:14.802Z,11.61
2019-03-18T22:49:23.638Z,11.26
2019-03-18T22:54:33.153Z,11.21
2019-03-18T22:59:42.247Z,13.18
2019-03-18T23:04:51.185Z,13.16
2019-03-18T23:10:00.047Z,12.50
2019-03-18T23:15:09.141Z,10.39
2019-03-18T23:20:18.000Z,14.60
2019-03-18T23:25:26.968Z,11.31
2019-03-18T23:30:35.826Z,13.80
2019-03-18T23:35:44.786Z,13.43
2019-03-18T23:40:53.724Z,11.06
2019-03-18T23:46:02.711Z,12.32
2019-03-18T23:51:11.578Z,12.40
2019-03-18T23:56:20.580Z,11.60
